Aérodrome :
LOGIN :

S'inscrire | Disclaimer

   EN    FR    IT 

 










Légende :    VFR   VFR Marginal   IFR   IFR Intensif   IFR Très Intensif
Visi : 
Plafond : 
>= 8 km
>= 3000ft
5 à 8 km
1000 à 3000 ft
1500m à 5 km
500 à 1000 ft
800 à 1500m
200 à 500 ft
< 800m
< 200 ft
Symboles :   Orages  Brouillard  Fortes neiges  Fortes précipitations  Vent > 20 kt
SIGMETs :   Divers  Orages  Givrage  Turbulence  Onde Orograph.  Cendres Volcan.






- Altitude de l'aérodrome : 359 ft
- Code IATA : BVA


LFOB - Beauvais

DERNIER METAR :
  • 281230Z AUTO 03014KT 8000 NSC 14/05 Q1021 NOSIG

METARs EXPIRÉS :
  • 281200Z AUTO 02016KT 8000 NSC 14/05 Q1021 NOSIG
  • 281130Z AUTO 02013KT 7000 NSC 14/05 Q1021 NOSIG
  • 281100Z AUTO 01011KT 7000 NSC 13/05 Q1021 NOSIG
  • 281030Z AUTO 01010KT 8000 NSC 12/05 Q1021 NOSIG
  • 281000Z AUTO 01008KT 7000 NSC 11/05 Q1021 NOSIG

TAF TAF LFOB
Valide du 28 à 12h jusqu'au 29 à 12h UTC


281100Z 2812/2912 01010KT 8000 NSC
BECMG 2816/2818 01015G25KT
TEMPO 2819/2912 01020G30KT
PROB30
TEMPO 2907/2909 4000 SHRA
ATIS : +33 3 44 11 49 28



MET'MAP, la Météo Aéronautique d'un coup d'oeil ! - Copyright ORBIFLY Décembre 2007 - Disclaimer

ORBIFLY MET'MAP TEAM :

Programmation & Développement : Alexandra Zaïnal
Sur une idée originale de : Baudouin d'Aumeries
Assistance à la programmation : Marc-Olivier Méhu
Soutien technique & logistique : Manuel Goepfert

Contact : metmap@orbifly.com




SOURCES & CREDITS :

   NOAA